TFM - Tactical Decision Aid
ID: Runway Winds: CIG/VIS Threshold:

KTPA - Tampa Intl Arpt, FL, US

Updated at: 2114 UTC 17 Jun 2019
Latest TAF at: 1947 UTC 17 Jun 2019

TAF Board

Time2053Z 17/22Z 17/23Z 18/00Z 18/01Z 18/02Z 18/03Z 18/04Z 18/05Z 18/06Z 18/07Z 18/08Z 18/09Z 18/10Z>>
Type OBS PRVL PRVL PRVL PRVL PRVL PRVL PRVL PRVL PRVL PRVL PRVL PRVL PRVL
VIS 10 >6 >6 >6 >6 >6 >6 >6 >6 >6 >6 >6 >6 >6
CIG 100 60 60 60 60 250 250 250 250 250 250 250 250 250
Cover BKN BKN BKN BKN BKN BKN BKN BKN BKN BKN BKN BKN BKN BKN
FltCat VFR VFR VFR VFR VFR VFR VFR VFR VFR VFR VFR VFR VFR VFR
WX -- VCTS VCTS VCTS VCTS -- -- -- -- -- -- -- -- --
WDir 190 230 230 230 230 VRB VRB VRB VRB VRB VRB VRB VRB VRB
WSpd 9 7 7 7 7 4 4 4 4 4 4 4 4 4
WGst -- -- -- -- -- -- -- -- -- -- -- -- -- --

TDA Impact Legend

  None Marginal Slight Moderate High
Visibility (sm) >5 3≤X≤5 1≤X<3 0.5≤X<1 <0.5
Ceiling (100 ft) >30 10≤X≤30 4≤X<10 2≤X<4 <2
Wind Speed (kt) <15 15≤X<25 25≤X<30 ≥30
Wind Gust (kt) <15 15≤X<25 25≤X<35 ≥35
Weather No Wx Reported VCTS -TS,-FZRA TS,FZRA +TS,+FZRA
TAF
KTPA 171947Z 1720/1824 23007KT P6SM VCTS SCT035CB BKN060 BKN250
  FM180200 VRB04KT P6SM SCT040 BKN250
  FM181400 22007KT P6SM VCSH SCT025 BKN060
  FM181800 24010KT P6SM VCTS SCT035CB BKN050


METAR
KTPA 172053Z COR 19009KT 10SM SCT032TCU BKN100 BKN220 29/24 A3000 RMK AO2 LTG DSNT N AND SE AND NW SLP159 CB DSNT N AND SE TCU N-SE AND SW VCSH N-E SHRA DSNT SE 60006 T02940244 56009 $
KTPA 171953Z 22006KT 10SM SCT036 BKN130 BKN250 29/23 A3000 RMK AO2 LTG DSNT N AND NE SLP159 CB DSNT NW-S T02890233 $
KTPA 171853Z COR VRB03KT 10SM SCT035 BKN100 BKN250 29/23 A3001 RMK AO2 LTG DSNT N RAE14 SLP162 CB DSNT S-N P0006 T02890233 $
KTPA 171753Z COR 19005KT 5SM R01L/1200V3000FT -RA BR BKN035CB BKN055 OVC120 24/22 A3003 RMK AO2 RAB22E29B34 SLP168 CB S-N MOV NW P0010 60010 T02440217 10322 20239 58008 $
KTPA 171747Z 20020KT 2 1/2SM R01L/1200VP6000FT -RA BR BKN035CB OVC055 24/22 A3004 RMK AO2 RAB22E29B34 CB S-N MOV NW P0022 $

Radar Display
Forecast Discussion